Time;durP1;ratioP1;P1;durP2;ratioP2;P2;SDS_P1;SDS_P2;PMS_P1;PMS_P2;Temp;Humidity;BMP_temperature;BMP_pressure;BME280_temperature;BME280_humidity;BME280_pressure;Samples;Min_cycle;Max_cycle;Signal;HPM_P1;HPM_P2
2023/09/19 00:05:38;;;;;;;6.47;1.50;;;14.40;75.20;;;;;;20535284;28;20410;-43
2023/09/19 00:15:48;;;;;;;5.55;1.38;;;14.50;70.60;;;;;;20547475;28;20056;-43
2023/09/19 00:25:49;;;;;;;5.40;1.40;;;14.50;58.20;;;;;;20546908;28;20045;-43
2023/09/19 00:35:51;;;;;;;4.18;1.50;;;14.60;46.60;;;;;;20546306;28;20455;-43
2023/09/19 00:45:54;;;;;;;4.63;1.50;;;14.60;58.80;;;;;;20545957;28;20089;-44
2023/09/19 00:55:56;;;;;;;5.28;1.48;;;14.60;53.00;;;;;;20534262;28;20104;-43
2023/09/19 01:05:57;;;;;;;5.55;1.42;;;14.60;36.70;;;;;;20540312;28;20409;-43
2023/09/19 01:16:13;;;;;;;8.90;1.40;;;14.60;30.80;;;;;;20538639;28;20058;-43
2023/09/19 01:26:55;;;;;;;5.15;1.40;;;14.60;28.40;;;;;;20542154;28;20557;-43
2023/09/19 01:36:55;;;;;;;7.93;1.50;;;14.70;2.20;;;;;;20537797;28;20050;-43
2023/09/19 01:46:59;;;;;;;8.77;1.50;;;14.60;12.80;;;;;;20543792;28;20104;-43
2023/09/19 01:57:14;;;;;;;9.40;1.67;;;14.40;10.30;;;;;;20536768;28;20041;-43
2023/09/19 02:07:15;;;;;;;8.70;1.45;;;14.50;1.00;;;;;;20537141;28;20046;-43
2023/09/19 02:17:16;;;;;;;10.85;1.50;;;14.60;1.00;;;;;;20532134;28;20038;-43
2023/09/19 02:27:20;;;;;;;8.73;1.83;;;14.60;1.00;;;;;;20535621;28;20564;-44
2023/09/19 02:37:21;;;;;;;4.88;1.73;;;14.60;1.00;;;;;;20531999;28;20502;-42
2023/09/19 02:47:21;;;;;;;11.20;1.70;;;14.50;1.00;;;;;;20536752;28;20046;-43
2023/09/19 02:57:24;;;;;;;9.93;1.90;;;14.70;1.00;;;;;;20530192;28;20141;-43
2023/09/19 03:07:25;;;;;;;7.95;2.15;;;14.60;1.00;;;;;;20529547;28;20504;-43
2023/09/19 03:17:25;;;;;;;13.27;2.03;;;14.60;1.00;;;;;;20539120;28;20042;-43
2023/09/19 03:27:27;;;;;;;7.57;1.67;;;14.50;1.00;;;;;;20550786;28;20042;-43
2023/09/19 03:37:27;;;;;;;10.32;2.08;;;14.40;1.00;;;;;;20537281;28;20050;-43
2023/09/19 03:47:28;;;;;;;9.73;1.42;;;14.30;1.00;;;;;;20558686;28;20031;-43
2023/09/19 03:57:28;;;;;;;10.50;1.88;;;14.40;1.00;;;;;;20558577;28;20753;-43
2023/09/19 04:07:29;;;;;;;8.48;2.00;;;14.30;1.00;;;;;;20561031;28;20139;-43
2023/09/19 04:17:34;;;;;;;12.15;1.85;;;14.30;1.00;;;;;;20554647;28;20191;-42
2023/09/19 04:27:35;;;;;;;12.57;2.38;;;14.50;1.00;;;;;;20566769;28;20045;-42
2023/09/19 04:37:39;;;;;;;8.82;2.05;;;14.50;1.00;;;;;;20553326;28;20510;-42
2023/09/19 04:47:40;;;;;;;7.85;2.30;;;14.40;1.00;;;;;;20553867;28;20042;-43
2023/09/19 04:57:40;;;;;;;11.95;1.90;;;14.20;1.00;;;;;;20540601;28;20548;-43
2023/09/19 05:07:42;;;;;;;12.30;2.10;;;14.30;1.00;;;;;;20540878;28;20073;-42
2023/09/19 05:17:48;;;;;;;7.20;1.58;;;14.20;1.00;;;;;;20537921;28;20055;-42
2023/09/19 05:27:50;;;;;;;8.10;2.05;;;14.30;1.00;;;;;;20528715;28;20049;-43
2023/09/19 05:37:51;;;;;;;9.85;1.75;;;14.30;1.00;;;;;;20550982;28;20477;-43
2023/09/19 05:47:55;;;;;;;11.13;1.77;;;14.30;1.00;;;;;;20553637;28;20034;-43
2023/09/19 05:57:56;;;;;;;11.88;2.20;;;14.30;1.00;;;;;;20560736;28;20042;-43
2023/09/19 06:07:59;;;;;;;9.07;2.10;;;14.40;1.00;;;;;;20562313;28;20042;-43
2023/09/19 06:18:02;;;;;;;10.20;1.75;;;14.40;1.00;;;;;;20545669;28;20170;-43
2023/09/19 06:28:05;;;;;;;11.75;2.20;;;14.60;1.00;;;;;;20515314;28;20047;-43
2023/09/19 06:38:07;;;;;;;10.57;3.17;;;14.50;1.00;;;;;;20529121;28;20430;-43
2023/09/19 06:48:09;;;;;;;12.07;2.60;;;14.50;4.20;;;;;;20540105;28;20042;-43
2023/09/19 06:58:10;;;;;;;13.32;2.95;;;14.80;4.80;;;;;;20541128;28;20049;-43
2023/09/19 07:08:12;;;;;;;12.00;2.30;;;14.90;4.40;;;;;;20554065;28;20070;-42
2023/09/19 07:18:16;;;;;;;9.55;2.35;;;15.10;1.00;;;;;;20536820;28;20046;-42
2023/09/19 07:28:17;;;;;;;19.25;3.30;;;15.20;1.00;;;;;;20542813;28;20043;-42
2023/09/19 07:38:18;;;;;;;15.65;3.08;;;15.40;1.00;;;;;;20538700;28;21573;-42
2023/09/19 07:48:18;;;;;;;15.55;2.47;;;15.50;1.00;;;;;;20537834;28;20517;-43
2023/09/19 07:58:19;;;;;;;10.93;2.53;;;15.60;1.00;;;;;;20540701;28;20042;-42
2023/09/19 08:08:21;;;;;;;13.40;2.38;;;15.80;1.00;;;;;;20541395;28;20042;-43
2023/09/19 08:18:22;;;;;;;10.05;2.58;;;16.10;1.00;;;;;;20546607;28;20047;-43
2023/09/19 08:28:24;;;;;;;11.00;3.03;;;16.20;1.00;;;;;;20546002;28;20041;-43
2023/09/19 08:38:29;;;;;;;16.23;2.85;;;16.40;1.00;;;;;;20556305;28;20526;-43
2023/09/19 08:48:31;;;;;;;16.50;3.25;;;16.50;1.00;;;;;;20550539;28;20793;-42
2023/09/19 08:58:40;;;;;;;13.75;2.50;;;16.70;1.00;;;;;;20575811;28;20039;-43
2023/09/19 09:08:42;;;;;;;7.35;1.98;;;16.90;1.00;;;;;;20557555;28;20491;-43
2023/09/19 09:18:44;;;;;;;14.35;2.97;;;17.20;1.00;;;;;;20581494;28;20596;-43
2023/09/19 09:28:45;;;;;;;12.77;2.42;;;17.20;1.00;;;;;;20589221;28;20046;-43
2023/09/19 09:38:48;;;;;;;13.48;2.97;;;17.20;1.00;;;;;;20557682;28;20042;-43
2023/09/19 09:59:17;;;;;;;11.90;2.08;;;17.70;1.00;;;;;;20534712;28;20046;-43
2023/09/19 10:09:20;;;;;;;11.38;2.58;;;17.70;1.00;;;;;;20551701;28;20121;-42
2023/09/19 10:19:30;;;;;;;8.98;2.65;;;17.70;1.00;;;;;;20574733;28;20061;-42
2023/09/19 10:29:35;;;;;;;8.55;1.90;;;17.90;1.00;;;;;;20564413;28;20065;-43
2023/09/19 10:39:38;;;;;;;8.55;1.88;;;18.30;1.00;;;;;;20552382;28;20092;-41
2023/09/19 10:49:48;;;;;;;8.30;1.92;;;18.40;1.00;;;;;;20549424;28;20082;-43
2023/09/19 11:10:50;;;;;;;9.30;1.58;;;19.00;1.00;;;;;;20534628;28;20402;-41
2023/09/19 11:21:32;;;;;;;5.15;1.00;;;19.10;1.00;;;;;;20542092;28;20144;-43
2023/09/19 11:31:45;;;;;;;14.73;7.57;;;19.10;1.00;;;;;;20544077;28;20522;-42
2023/09/19 11:41:52;;;;;;;5.55;1.38;;;19.00;1.00;;;;;;20550099;28;20045;-42
2023/09/19 11:51:52;;;;;;;5.67;1.13;;;19.00;1.00;;;;;;20535446;28;20549;-42
2023/09/19 12:01:58;;;;;;;4.72;1.35;;;19.20;1.00;;;;;;20584924;28;20046;-43
2023/09/19 12:11:58;;;;;;;5.57;1.17;;;19.00;1.00;;;;;;20595333;28;20134;-43
2023/09/19 12:22:04;;;;;;;10.02;1.48;;;18.90;1.00;;;;;;20588228;28;20505;-42
2023/09/19 12:32:06;;;;;;;7.28;1.30;;;18.80;1.00;;;;;;20588912;28;20046;-43
2023/09/19 12:42:13;;;;;;;6.38;1.13;;;18.80;1.00;;;;;;20565706;28;20061;-43
2023/09/19 12:52:14;;;;;;;7.53;1.10;;;19.30;1.00;;;;;;20556839;28;20047;-41
2023/09/19 13:02:18;;;;;;;4.72;1.30;;;19.50;1.00;;;;;;20536046;28;20077;-42
2023/09/19 13:12:36;;;;;;;3.25;0.80;;;19.60;1.00;;;;;;20561004;28;20085;-42
2023/09/19 13:22:41;;;;;;;4.07;0.80;;;19.50;1.00;;;;;;20556972;28;20046;-41
2023/09/19 13:32:43;;;;;;;4.00;0.95;;;19.60;1.00;;;;;;20554190;28;20045;-42
2023/09/19 13:42:43;;;;;;;4.22;1.45;;;19.20;1.00;;;;;;20556713;28;20491;-42
2023/09/19 13:52:44;;;;;;;5.20;1.10;;;19.00;1.00;;;;;;20551972;28;20793;-42
2023/09/19 14:02:45;;;;;;;7.78;1.30;;;19.00;1.00;;;;;;20547483;28;20547;-41
2023/09/19 14:12:45;;;;;;;5.55;1.70;;;19.10;1.00;;;;;;20545108;28;20125;-43
2023/09/19 14:22:46;;;;;;;7.17;1.80;;;19.10;1.00;;;;;;20540587;28;20050;-42
2023/09/19 14:32:46;;;;;;;6.05;1.52;;;19.00;1.00;;;;;;20546747;28;20055;-42
2023/09/19 14:42:48;;;;;;;4.78;1.73;;;18.80;1.00;;;;;;20546830;28;20050;-42
2023/09/19 14:52:53;;;;;;;8.32;1.73;;;18.70;1.00;;;;;;20552446;28;20204;-42
2023/09/19 15:02:55;;;;;;;6.30;1.83;;;18.30;1.00;;;;;;20547851;28;20509;-41
2023/09/19 15:12:56;;;;;;;5.55;1.73;;;18.40;1.00;;;;;;20544350;28;20552;-42
2023/09/19 15:22:56;;;;;;;7.22;1.98;;;18.50;1.00;;;;;;20584689;28;20091;-42
2023/09/19 15:32:57;;;;;;;7.32;2.17;;;18.60;1.00;;;;;;20554650;28;20507;-42
2023/09/19 15:42:58;;;;;;;6.47;2.03;;;18.70;1.00;;;;;;20550225;28;20050;-42
2023/09/19 15:52:58;;;;;;;7.72;1.58;;;18.80;1.00;;;;;;20552109;28;20039;-42
2023/09/19 16:02:59;;;;;;;7.57;2.35;;;18.90;1.00;;;;;;20554085;28;20050;-42
2023/09/19 16:13:01;;;;;;;6.40;1.98;;;18.90;1.00;;;;;;20556122;28;20404;-42
2023/09/19 16:23:01;;;;;;;3.97;1.60;;;19.00;1.00;;;;;;20528895;28;20121;-42
2023/09/19 16:33:02;;;;;;;6.88;1.45;;;18.80;1.00;;;;;;20572937;28;20160;-42
2023/09/19 16:43:03;;;;;;;6.07;1.60;;;18.30;1.00;;;;;;20567277;28;20050;-42
2023/09/19 16:53:03;;;;;;;7.70;2.17;;;18.00;1.00;;;;;;20553566;28;20034;-41
2023/09/19 17:03:05;;;;;;;8.20;2.10;;;18.00;1.00;;;;;;20522194;28;20454;-42
2023/09/19 17:13:06;;;;;;;6.88;2.13;;;17.90;1.00;;;;;;20528602;28;20490;-42
2023/09/19 17:23:07;;;;;;;7.57;2.03;;;18.00;1.00;;;;;;20537954;28;20051;-42
2023/09/19 17:33:07;;;;;;;8.27;2.40;;;17.90;1.00;;;;;;20509317;28;21693;-41
2023/09/19 17:43:11;;;;;;;6.63;2.00;;;17.80;1.00;;;;;;20539712;28;20047;-42
2023/09/19 17:53:12;;;;;;;7.95;2.75;;;17.70;1.00;;;;;;20531253;28;20039;-42
2023/09/19 18:03:13;;;;;;;7.97;2.38;;;17.60;1.00;;;;;;20522804;28;20425;-42
2023/09/19 18:13:13;;;;;;;6.25;2.35;;;17.40;1.00;;;;;;20535141;28;20042;-42
2023/09/19 18:23:15;;;;;;;10.90;2.70;;;17.30;5.50;;;;;;20539140;28;20142;-43
2023/09/19 18:33:15;;;;;;;8.63;2.60;;;17.30;15.40;;;;;;20533146;28;20042;-42
2023/09/19 18:43:16;;;;;;;7.73;2.30;;;17.20;14.00;;;;;;20510791;28;20097;-42
2023/09/19 18:53:18;;;;;;;7.00;2.55;;;17.30;10.20;;;;;;20511689;28;20042;-42
2023/09/19 19:03:19;;;;;;;6.05;2.40;;;17.30;5.00;;;;;;20514325;28;20047;-42
2023/09/19 19:13:19;;;;;;;8.93;2.70;;;17.30;1.10;;;;;;20508729;28;20069;-42
2023/09/19 19:23:20;;;;;;;8.57;2.77;;;17.40;1.00;;;;;;20507027;28;20140;-42
2023/09/19 19:33:21;;;;;;;9.63;2.70;;;17.40;1.00;;;;;;20509677;28;20058;-43
2023/09/19 19:43:23;;;;;;;9.52;2.88;;;17.40;1.00;;;;;;20519270;28;20050;-42
2023/09/19 19:53:24;;;;;;;5.70;2.70;;;17.40;1.00;;;;;;20511625;28;20034;-43
2023/09/19 20:03:27;;;;;;;8.93;2.90;;;17.40;1.00;;;;;;20511115;28;20359;-42
2023/09/19 20:13:28;;;;;;;9.55;2.95;;;17.50;1.00;;;;;;20520470;28;20054;-42
2023/09/19 20:23:29;;;;;;;9.60;3.07;;;17.40;1.00;;;;;;20537592;28;20046;-42
2023/09/19 20:33:29;;;;;;;10.77;3.50;;;17.40;5.10;;;;;;20554199;28;20474;-42
2023/09/19 20:43:30;;;;;;;8.35;2.95;;;17.50;5.00;;;;;;20554438;28;20353;-43
2023/09/19 20:53:31;;;;;;;7.18;3.20;;;17.40;15.30;;;;;;20550963;28;20487;-42
2023/09/19 21:03:32;;;;;;;8.80;2.90;;;17.40;14.10;;;;;;20539730;28;20137;-42
2023/09/19 21:13:34;;;;;;;5.53;2.63;;;17.40;10.70;;;;;;20527147;28;20462;-43
2023/09/19 21:23:35;;;;;;;8.18;3.08;;;17.50;1.00;;;;;;20510411;28;20411;-43
2023/09/19 21:33:38;;;;;;;7.30;2.60;;;17.60;1.00;;;;;;20502956;28;20072;-42
2023/09/19 21:43:38;;;;;;;11.20;2.92;;;17.90;1.00;;;;;;20503381;28;20062;-41
2023/09/19 21:53:39;;;;;;;8.20;2.50;;;18.00;1.00;;;;;;20512819;28;20289;-42
2023/09/19 22:03:40;;;;;;;7.65;2.88;;;18.00;1.00;;;;;;20508259;28;20921;-42
2023/09/19 22:13:42;;;;;;;8.65;2.70;;;17.90;1.00;;;;;;20516913;28;20049;-42
2023/09/19 22:23:43;;;;;;;11.35;3.05;;;17.90;1.00;;;;;;20517694;28;20039;-42
2023/09/19 22:33:47;;;;;;;11.10;2.88;;;18.00;1.00;;;;;;20519008;28;20058;-43
2023/09/19 22:43:50;;;;;;;9.55;3.08;;;18.00;1.00;;;;;;20520408;28;20142;-42
2023/09/19 22:53:51;;;;;;;10.18;3.05;;;18.10;1.00;;;;;;20519041;28;23046;-42
2023/09/19 23:04:03;;;;;;;10.18;2.83;;;18.20;1.00;;;;;;20508307;28;20042;-42
2023/09/19 23:14:07;;;;;;;9.82;2.58;;;18.20;1.00;;;;;;20509713;28;20742;-43
2023/09/19 23:24:07;;;;;;;9.88;2.65;;;18.30;1.00;;;;;;20507168;28;20343;-43
2023/09/19 23:34:08;;;;;;;6.27;2.40;;;18.30;1.00;;;;;;20515967;28;20042;-42
2023/09/19 23:44:09;;;;;;;9.15;3.13;;;18.30;1.00;;;;;;20522072;28;20062;-43
2023/09/19 23:54:20;;;;;;;12.05;3.33;;;18.40;1.00;;;;;;20515792;28;20101;-43
